Erie, MI (48133)

8:09 AM EST on February 08, 2016 (GMT -0500)
South County, Erie, MI | | Change Station
CLOSE
Current Station
Personal Weather Station
Location: Erie, MI
Elevation: 576 ft
Nearby Weather Stations

Elev 576 ft 41.76 °N, 83.50 °W | Updated 4 minutes ago

Overcast
Overcast
34.1 °F
Feels Like 30 °F
N
5.0
Wind Variable Wind from North
Gusts 5.0 mph

Today
High -- | Low -- °F
--% Chance of Precip.
Yesterday
High -- | Low -- °F
Precip. -- in
Pressure 29.64 in
Visibility 10.0 miles
Clouds Overcast 8000 ft
Windchill 30 °F
Dew Point 31 °F
Humidity 87%
Rainfall 0.00 in
Snow Depth Not available.
7:39 AM 5:57 PM
Waning Crescent, 0% visible
METAR KDUH 081255Z AUTO 25004KT 10SM OVC080 01/M01 A2964 RMK AO2 T00081007
Pressure 29.64 in
Visibility 10.0 miles
Clouds Overcast 8000 ft
Windchill 30 °F
Dew Point 31 °F
Humidity 87%
Rainfall 0.00 in
Snow Depth Not available.
7:39 AM 5:57 PM
Waning Crescent, 0% visible
METAR KDUH 081255Z AUTO 25004KT 10SM OVC080 01/M01 A2964 RMK AO2 T00081007

10-Day Weather Forecast

Almanac

Astronomy

Feb. 08, 2016 Rise Set
Actual Time
Civil Twilight
Nautical Twilight
Astronomical Twilight
Moon
Length of Visible Light
Length of Day
Tomorrow will be .
, % of the Moon is Illuminated

Today's Extremes

State Highs State Lows

Community

WunderPhotos

Upload Photos

1,891,434 photos uploaded!

WunderBlog® & News

Nearby

Air Quality

  Air Quality AQ Index Pollutant
Not available.

Snow Depth

Station Depth Elevation

Earthquake Activity

City Distance Mag. Time & Date
Minimum magnitude displayed is 2.5.

Coastal Water Temperatures

Place Temperature

Stations

Nearby Weather Stations

Station Location Temp. Windchill Dew Point Humidity Wind Precip. Elev Updated Type
                   

Watches & Warnings

There are currently no watches in effect.